sensor_id;sensor_type;location;lat;lon;timestamp;P1;durP1;ratioP1;P2;durP2;ratioP2
62071;SDS011;48031;48.542;13.232;2023-12-29T00:01:29;2.30;;;2.00;;
62071;SDS011;48031;48.542;13.232;2023-12-29T00:05:31;2.67;;;2.00;;
62071;SDS011;48031;48.542;13.232;2023-12-29T00:09:33;4.80;;;2.05;;
62071;SDS011;48031;48.542;13.232;2023-12-29T00:13:42;4.38;;;3.38;;
62071;SDS011;48031;48.542;13.232;2023-12-29T00:17:44;4.47;;;2.90;;
62071;SDS011;48031;48.542;13.232;2023-12-29T00:21:46;6.10;;;3.17;;
62071;SDS011;48031;48.542;13.232;2023-12-29T00:25:48;5.00;;;2.80;;
62071;SDS011;48031;48.542;13.232;2023-12-29T00:29:49;4.40;;;2.63;;
62071;SDS011;48031;48.542;13.232;2023-12-29T00:33:52;4.60;;;3.10;;
62071;SDS011;48031;48.542;13.232;2023-12-29T00:37:55;3.33;;;2.30;;
62071;SDS011;48031;48.542;13.232;2023-12-29T00:41:58;3.75;;;2.30;;
62071;SDS011;48031;48.542;13.232;2023-12-29T00:46:03;4.20;;;2.50;;
62071;SDS011;48031;48.542;13.232;2023-12-29T00:50:05;4.10;;;2.35;;
62071;SDS011;48031;48.542;13.232;2023-12-29T00:54:07;3.15;;;2.15;;
62071;SDS011;48031;48.542;13.232;2023-12-29T00:58:10;4.00;;;2.28;;
62071;SDS011;48031;48.542;13.232;2023-12-29T01:02:11;3.97;;;2.65;;
62071;SDS011;48031;48.542;13.232;2023-12-29T01:06:13;4.15;;;3.03;;
62071;SDS011;48031;48.542;13.232;2023-12-29T01:10:15;5.07;;;2.72;;
62071;SDS011;48031;48.542;13.232;2023-12-29T01:14:17;3.63;;;2.60;;
62071;SDS011;48031;48.542;13.232;2023-12-29T01:18:19;2.80;;;2.08;;
62071;SDS011;48031;48.542;13.232;2023-12-29T01:22:21;3.15;;;2.13;;
62071;SDS011;48031;48.542;13.232;2023-12-29T01:26:23;3.63;;;2.40;;
62071;SDS011;48031;48.542;13.232;2023-12-29T01:30:25;4.07;;;2.28;;
62071;SDS011;48031;48.542;13.232;2023-12-29T01:34:27;2.97;;;2.00;;
62071;SDS011;48031;48.542;13.232;2023-12-29T01:38:34;3.70;;;2.00;;
62071;SDS011;48031;48.542;13.232;2023-12-29T01:42:36;2.00;;;1.80;;
62071;SDS011;48031;48.542;13.232;2023-12-29T01:46:38;2.60;;;2.10;;
62071;SDS011;48031;48.542;13.232;2023-12-29T01:50:41;2.40;;;2.03;;
62071;SDS011;48031;48.542;13.232;2023-12-29T01:54:43;5.53;;;2.50;;
62071;SDS011;48031;48.542;13.232;2023-12-29T01:58:46;3.75;;;2.28;;
62071;SDS011;48031;48.542;13.232;2023-12-29T02:02:49;2.20;;;2.00;;
62071;SDS011;48031;48.542;13.232;2023-12-29T02:06:51;3.17;;;2.10;;
62071;SDS011;48031;48.542;13.232;2023-12-29T02:10:54;2.22;;;1.70;;
62071;SDS011;48031;48.542;13.232;2023-12-29T02:14:56;2.97;;;2.10;;
62071;SDS011;48031;48.542;13.232;2023-12-29T02:18:58;3.00;;;2.20;;
62071;SDS011;48031;48.542;13.232;2023-12-29T02:23:00;2.47;;;2.08;;
62071;SDS011;48031;48.542;13.232;2023-12-29T02:27:05;3.22;;;1.90;;
62071;SDS011;48031;48.542;13.232;2023-12-29T02:31:15;1.75;;;1.63;;
62071;SDS011;48031;48.542;13.232;2023-12-29T02:35:23;2.63;;;1.73;;
62071;SDS011;48031;48.542;13.232;2023-12-29T02:39:27;4.60;;;1.67;;
62071;SDS011;48031;48.542;13.232;2023-12-29T02:43:30;2.30;;;1.80;;
62071;SDS011;48031;48.542;13.232;2023-12-29T02:47:33;1.80;;;1.48;;
62071;SDS011;48031;48.542;13.232;2023-12-29T02:51:35;1.83;;;1.67;;
62071;SDS011;48031;48.542;13.232;2023-12-29T02:55:37;1.50;;;1.35;;
62071;SDS011;48031;48.542;13.232;2023-12-29T02:59:39;4.38;;;2.00;;
62071;SDS011;48031;48.542;13.232;2023-12-29T03:03:41;2.70;;;2.00;;
62071;SDS011;48031;48.542;13.232;2023-12-29T03:07:43;3.03;;;2.15;;
62071;SDS011;48031;48.542;13.232;2023-12-29T03:11:46;3.20;;;2.20;;
62071;SDS011;48031;48.542;13.232;2023-12-29T03:15:48;3.25;;;2.15;;
62071;SDS011;48031;48.542;13.232;2023-12-29T03:19:49;2.42;;;2.00;;
62071;SDS011;48031;48.542;13.232;2023-12-29T03:23:51;3.42;;;2.25;;
62071;SDS011;48031;48.542;13.232;2023-12-29T03:27:53;4.30;;;2.30;;
62071;SDS011;48031;48.542;13.232;2023-12-29T03:31:56;3.97;;;2.38;;
62071;SDS011;48031;48.542;13.232;2023-12-29T03:35:57;4.18;;;2.60;;
62071;SDS011;48031;48.542;13.232;2023-12-29T03:40:00;3.22;;;2.30;;
62071;SDS011;48031;48.542;13.232;2023-12-29T03:44:02;3.40;;;2.70;;
62071;SDS011;48031;48.542;13.232;2023-12-29T03:48:05;4.55;;;2.95;;
62071;SDS011;48031;48.542;13.232;2023-12-29T03:52:08;7.60;;;3.72;;
62071;SDS011;48031;48.542;13.232;2023-12-29T03:56:14;7.50;;;3.67;;
62071;SDS011;48031;48.542;13.232;2023-12-29T04:04:18;5.40;;;3.20;;
62071;SDS011;48031;48.542;13.232;2023-12-29T04:08:20;5.20;;;2.78;;
62071;SDS011;48031;48.542;13.232;2023-12-29T04:12:23;5.10;;;2.90;;
62071;SDS011;48031;48.542;13.232;2023-12-29T04:16:25;6.00;;;2.80;;
62071;SDS011;48031;48.542;13.232;2023-12-29T04:20:29;3.20;;;2.28;;
62071;SDS011;48031;48.542;13.232;2023-12-29T04:24:30;8.05;;;4.90;;
62071;SDS011;48031;48.542;13.232;2023-12-29T04:28:32;8.27;;;3.55;;
62071;SDS011;48031;48.542;13.232;2023-12-29T04:32:34;3.70;;;2.22;;
62071;SDS011;48031;48.542;13.232;2023-12-29T04:36:36;6.38;;;3.55;;
62071;SDS011;48031;48.542;13.232;2023-12-29T04:40:38;7.07;;;3.38;;
62071;SDS011;48031;48.542;13.232;2023-12-29T04:44:40;6.00;;;3.17;;
62071;SDS011;48031;48.542;13.232;2023-12-29T04:48:41;6.85;;;2.97;;
62071;SDS011;48031;48.542;13.232;2023-12-29T04:52:43;4.15;;;2.13;;
62071;SDS011;48031;48.542;13.232;2023-12-29T04:56:45;3.75;;;2.20;;
62071;SDS011;48031;48.542;13.232;2023-12-29T05:00:47;3.30;;;1.70;;
62071;SDS011;48031;48.542;13.232;2023-12-29T05:04:49;3.78;;;2.00;;
62071;SDS011;48031;48.542;13.232;2023-12-29T05:08:51;2.42;;;2.00;;
62071;SDS011;48031;48.542;13.232;2023-12-29T05:12:53;1.85;;;1.60;;
62071;SDS011;48031;48.542;13.232;2023-12-29T05:16:55;2.10;;;1.63;;
62071;SDS011;48031;48.542;13.232;2023-12-29T05:20:56;2.80;;;1.95;;
62071;SDS011;48031;48.542;13.232;2023-12-29T05:24:58;2.88;;;1.90;;
62071;SDS011;48031;48.542;13.232;2023-12-29T05:29:02;2.10;;;1.70;;
62071;SDS011;48031;48.542;13.232;2023-12-29T05:33:04;2.55;;;1.88;;
62071;SDS011;48031;48.542;13.232;2023-12-29T05:37:06;2.17;;;1.95;;
62071;SDS011;48031;48.542;13.232;2023-12-29T05:41:07;3.40;;;1.80;;
62071;SDS011;48031;48.542;13.232;2023-12-29T05:45:09;2.33;;;1.67;;
62071;SDS011;48031;48.542;13.232;2023-12-29T05:49:11;2.22;;;1.80;;
62071;SDS011;48031;48.542;13.232;2023-12-29T05:53:13;2.70;;;1.95;;
62071;SDS011;48031;48.542;13.232;2023-12-29T05:57:16;2.50;;;1.88;;
62071;SDS011;48031;48.542;13.232;2023-12-29T06:01:19;2.10;;;1.65;;
62071;SDS011;48031;48.542;13.232;2023-12-29T06:05:21;4.47;;;2.10;;
62071;SDS011;48031;48.542;13.232;2023-12-29T06:09:23;2.08;;;1.80;;
62071;SDS011;48031;48.542;13.232;2023-12-29T06:13:25;4.15;;;1.88;;
62071;SDS011;48031;48.542;13.232;2023-12-29T06:17:27;3.42;;;2.15;;
62071;SDS011;48031;48.542;13.232;2023-12-29T06:21:28;2.22;;;1.80;;
62071;SDS011;48031;48.542;13.232;2023-12-29T06:25:30;2.47;;;1.90;;
62071;SDS011;48031;48.542;13.232;2023-12-29T06:29:32;3.42;;;2.03;;
62071;SDS011;48031;48.542;13.232;2023-12-29T06:33:34;3.13;;;1.90;;
62071;SDS011;48031;48.542;13.232;2023-12-29T06:37:39;2.38;;;1.70;;
62071;SDS011;48031;48.542;13.232;2023-12-29T06:41:42;2.33;;;1.80;;
62071;SDS011;48031;48.542;13.232;2023-12-29T06:45:44;2.65;;;2.00;;
62071;SDS011;48031;48.542;13.232;2023-12-29T06:49:46;1.83;;;1.73;;
62071;SDS011;48031;48.542;13.232;2023-12-29T06:53:48;2.75;;;1.70;;
62071;SDS011;48031;48.542;13.232;2023-12-29T06:57:50;1.50;;;1.40;;
62071;SDS011;48031;48.542;13.232;2023-12-29T07:01:52;1.67;;;1.50;;
62071;SDS011;48031;48.542;13.232;2023-12-29T07:05:54;1.77;;;1.35;;
62071;SDS011;48031;48.542;13.232;2023-12-29T07:09:56;2.00;;;1.48;;
62071;SDS011;48031;48.542;13.232;2023-12-29T07:13:58;1.83;;;1.40;;
62071;SDS011;48031;48.542;13.232;2023-12-29T07:18:00;1.70;;;1.45;;
62071;SDS011;48031;48.542;13.232;2023-12-29T07:22:05;2.45;;;1.98;;
62071;SDS011;48031;48.542;13.232;2023-12-29T07:26:10;3.78;;;1.80;;
62071;SDS011;48031;48.542;13.232;2023-12-29T07:30:12;2.72;;;2.00;;
62071;SDS011;48031;48.542;13.232;2023-12-29T07:34:14;3.40;;;1.95;;
62071;SDS011;48031;48.542;13.232;2023-12-29T07:38:16;4.00;;;2.17;;
62071;SDS011;48031;48.542;13.232;2023-12-29T07:42:18;3.20;;;2.30;;
62071;SDS011;48031;48.542;13.232;2023-12-29T07:46:26;3.83;;;2.60;;
62071;SDS011;48031;48.542;13.232;2023-12-29T07:50:28;4.25;;;2.20;;
62071;SDS011;48031;48.542;13.232;2023-12-29T07:54:31;3.55;;;2.10;;
62071;SDS011;48031;48.542;13.232;2023-12-29T07:58:33;3.35;;;2.10;;
62071;SDS011;48031;48.542;13.232;2023-12-29T08:02:35;4.28;;;2.33;;
62071;SDS011;48031;48.542;13.232;2023-12-29T08:06:37;3.95;;;2.63;;
62071;SDS011;48031;48.542;13.232;2023-12-29T08:10:40;2.78;;;1.92;;
62071;SDS011;48031;48.542;13.232;2023-12-29T08:14:42;2.95;;;2.20;;
62071;SDS011;48031;48.542;13.232;2023-12-29T08:18:44;3.40;;;2.30;;
62071;SDS011;48031;48.542;13.232;2023-12-29T08:22:46;3.50;;;2.00;;
62071;SDS011;48031;48.542;13.232;2023-12-29T08:26:48;4.22;;;2.30;;
62071;SDS011;48031;48.542;13.232;2023-12-29T08:30:50;3.80;;;2.00;;
62071;SDS011;48031;48.542;13.232;2023-12-29T08:34:52;2.92;;;2.28;;
62071;SDS011;48031;48.542;13.232;2023-12-29T08:38:54;3.05;;;2.17;;
62071;SDS011;48031;48.542;13.232;2023-12-29T08:42:56;2.83;;;2.10;;
62071;SDS011;48031;48.542;13.232;2023-12-29T08:46:58;3.00;;;2.05;;
62071;SDS011;48031;48.542;13.232;2023-12-29T08:51:00;2.75;;;1.88;;
62071;SDS011;48031;48.542;13.232;2023-12-29T08:55:03;3.25;;;1.92;;
62071;SDS011;48031;48.542;13.232;2023-12-29T08:59:05;2.55;;;1.85;;
62071;SDS011;48031;48.542;13.232;2023-12-29T09:03:07;2.72;;;1.92;;
62071;SDS011;48031;48.542;13.232;2023-12-29T09:07:09;3.28;;;1.80;;
62071;SDS011;48031;48.542;13.232;2023-12-29T09:11:10;2.75;;;2.10;;
62071;SDS011;48031;48.542;13.232;2023-12-29T09:15:15;2.47;;;1.90;;
62071;SDS011;48031;48.542;13.232;2023-12-29T09:19:17;2.17;;;1.90;;
62071;SDS011;48031;48.542;13.232;2023-12-29T09:23:36;3.85;;;2.20;;
62071;SDS011;48031;48.542;13.232;2023-12-29T09:27:40;3.53;;;2.30;;
62071;SDS011;48031;48.542;13.232;2023-12-29T09:31:41;3.40;;;2.30;;
62071;SDS011;48031;48.542;13.232;2023-12-29T09:35:43;3.40;;;2.45;;
62071;SDS011;48031;48.542;13.232;2023-12-29T09:39:45;3.72;;;2.63;;
62071;SDS011;48031;48.542;13.232;2023-12-29T09:43:51;3.60;;;2.10;;
62071;SDS011;48031;48.542;13.232;2023-12-29T09:47:52;3.60;;;2.47;;
62071;SDS011;48031;48.542;13.232;2023-12-29T09:51:57;3.45;;;2.10;;
62071;SDS011;48031;48.542;13.232;2023-12-29T09:55:59;4.05;;;2.25;;
62071;SDS011;48031;48.542;13.232;2023-12-29T10:00:02;3.60;;;2.00;;
62071;SDS011;48031;48.542;13.232;2023-12-29T10:04:11;5.15;;;2.00;;
62071;SDS011;48031;48.542;13.232;2023-12-29T10:08:13;2.58;;;1.70;;
62071;SDS011;48031;48.542;13.232;2023-12-29T10:12:15;2.75;;;2.05;;
62071;SDS011;48031;48.542;13.232;2023-12-29T10:16:38;2.33;;;1.80;;
62071;SDS011;48031;48.542;13.232;2023-12-29T10:24:43;2.28;;;1.50;;
62071;SDS011;48031;48.542;13.232;2023-12-29T10:28:47;2.30;;;1.67;;
62071;SDS011;48031;48.542;13.232;2023-12-29T10:32:50;3.08;;;2.00;;
62071;SDS011;48031;48.542;13.232;2023-12-29T10:36:52;2.13;;;1.73;;
62071;SDS011;48031;48.542;13.232;2023-12-29T10:40:54;2.10;;;1.80;;
62071;SDS011;48031;48.542;13.232;2023-12-29T10:45:06;3.00;;;2.00;;
62071;SDS011;48031;48.542;13.232;2023-12-29T10:49:09;3.25;;;1.95;;
62071;SDS011;48031;48.542;13.232;2023-12-29T10:53:11;4.13;;;2.10;;
62071;SDS011;48031;48.542;13.232;2023-12-29T10:57:16;2.50;;;1.90;;
62071;SDS011;48031;48.542;13.232;2023-12-29T11:01:18;3.15;;;1.90;;
62071;SDS011;48031;48.542;13.232;2023-12-29T11:05:24;3.60;;;1.58;;
62071;SDS011;48031;48.542;13.232;2023-12-29T11:13:31;1.83;;;1.55;;
62071;SDS011;48031;48.542;13.232;2023-12-29T11:17:35;2.92;;;1.90;;
62071;SDS011;48031;48.542;13.232;2023-12-29T11:21:37;1.65;;;1.50;;
62071;SDS011;48031;48.542;13.232;2023-12-29T11:25:40;1.75;;;1.60;;
62071;SDS011;48031;48.542;13.232;2023-12-29T11:29:42;2.45;;;1.73;;
62071;SDS011;48031;48.542;13.232;2023-12-29T11:33:52;3.88;;;1.95;;
62071;SDS011;48031;48.542;13.232;2023-12-29T11:38:09;2.58;;;1.95;;
62071;SDS011;48031;48.542;13.232;2023-12-29T11:42:17;2.72;;;1.60;;
62071;SDS011;48031;48.542;13.232;2023-12-29T11:46:40;2.72;;;1.95;;
62071;SDS011;48031;48.542;13.232;2023-12-29T11:50:44;3.67;;;1.70;;
62071;SDS011;48031;48.542;13.232;2023-12-29T11:54:46;1.98;;;1.40;;
62071;SDS011;48031;48.542;13.232;2023-12-29T11:58:49;1.95;;;1.60;;
62071;SDS011;48031;48.542;13.232;2023-12-29T12:02:51;3.17;;;1.75;;
62071;SDS011;48031;48.542;13.232;2023-12-29T12:06:53;2.10;;;1.42;;
62071;SDS011;48031;48.542;13.232;2023-12-29T12:10:55;1.92;;;1.50;;
62071;SDS011;48031;48.542;13.232;2023-12-29T12:14:57;2.70;;;1.80;;
62071;SDS011;48031;48.542;13.232;2023-12-29T12:18:59;3.17;;;1.77;;
62071;SDS011;48031;48.542;13.232;2023-12-29T12:23:02;2.65;;;1.80;;
62071;SDS011;48031;48.542;13.232;2023-12-29T12:27:09;1.80;;;1.60;;
62071;SDS011;48031;48.542;13.232;2023-12-29T12:31:12;2.50;;;2.00;;
62071;SDS011;48031;48.542;13.232;2023-12-29T12:35:15;1.98;;;1.77;;
62071;SDS011;48031;48.542;13.232;2023-12-29T12:39:21;2.22;;;1.98;;
62071;SDS011;48031;48.542;13.232;2023-12-29T12:43:23;2.10;;;1.90;;
62071;SDS011;48031;48.542;13.232;2023-12-29T12:47:32;3.83;;;1.90;;
62071;SDS011;48031;48.542;13.232;2023-12-29T12:51:35;2.22;;;1.85;;
62071;SDS011;48031;48.542;13.232;2023-12-29T12:55:37;3.80;;;2.60;;
62071;SDS011;48031;48.542;13.232;2023-12-29T12:59:39;2.90;;;2.28;;
62071;SDS011;48031;48.542;13.232;2023-12-29T13:03:41;3.05;;;2.10;;
62071;SDS011;48031;48.542;13.232;2023-12-29T13:07:43;2.60;;;2.00;;
62071;SDS011;48031;48.542;13.232;2023-12-29T13:11:45;2.72;;;2.13;;
62071;SDS011;48031;48.542;13.232;2023-12-29T13:15:48;2.10;;;1.70;;
62071;SDS011;48031;48.542;13.232;2023-12-29T13:19:55;2.55;;;1.90;;
62071;SDS011;48031;48.542;13.232;2023-12-29T13:23:57;2.08;;;1.77;;
62071;SDS011;48031;48.542;13.232;2023-12-29T13:28:05;1.73;;;1.45;;
62071;SDS011;48031;48.542;13.232;2023-12-29T13:32:13;1.92;;;1.67;;
62071;SDS011;48031;48.542;13.232;2023-12-29T13:36:23;2.28;;;1.73;;
62071;SDS011;48031;48.542;13.232;2023-12-29T13:40:37;1.85;;;1.60;;
62071;SDS011;48031;48.542;13.232;2023-12-29T13:44:40;2.08;;;1.60;;
62071;SDS011;48031;48.542;13.232;2023-12-29T13:48:43;2.15;;;1.77;;
62071;SDS011;48031;48.542;13.232;2023-12-29T13:52:47;2.30;;;1.98;;
62071;SDS011;48031;48.542;13.232;2023-12-29T13:56:52;2.05;;;1.75;;
62071;SDS011;48031;48.542;13.232;2023-12-29T14:00:56;4.45;;;2.38;;
62071;SDS011;48031;48.542;13.232;2023-12-29T14:05:14;3.08;;;2.00;;
62071;SDS011;48031;48.542;13.232;2023-12-29T14:09:16;2.58;;;1.88;;
62071;SDS011;48031;48.542;13.232;2023-12-29T14:13:19;2.35;;;1.60;;
62071;SDS011;48031;48.542;13.232;2023-12-29T14:17:21;2.38;;;1.67;;
62071;SDS011;48031;48.542;13.232;2023-12-29T14:21:27;2.20;;;1.65;;
62071;SDS011;48031;48.542;13.232;2023-12-29T14:25:30;2.22;;;1.85;;
62071;SDS011;48031;48.542;13.232;2023-12-29T14:29:40;2.30;;;1.90;;
62071;SDS011;48031;48.542;13.232;2023-12-29T14:33:42;3.00;;;1.95;;
62071;SDS011;48031;48.542;13.232;2023-12-29T14:37:44;5.25;;;2.00;;
62071;SDS011;48031;48.542;13.232;2023-12-29T14:41:46;2.83;;;2.30;;
62071;SDS011;48031;48.542;13.232;2023-12-29T14:45:49;3.17;;;2.05;;
62071;SDS011;48031;48.542;13.232;2023-12-29T14:49:52;3.70;;;2.20;;
62071;SDS011;48031;48.542;13.232;2023-12-29T14:53:54;2.70;;;2.00;;
62071;SDS011;48031;48.542;13.232;2023-12-29T14:57:55;2.95;;;2.00;;
62071;SDS011;48031;48.542;13.232;2023-12-29T15:01:57;5.28;;;2.17;;
62071;SDS011;48031;48.542;13.232;2023-12-29T15:06:00;4.55;;;2.25;;
62071;SDS011;48031;48.542;13.232;2023-12-29T15:10:02;2.80;;;2.00;;
62071;SDS011;48031;48.542;13.232;2023-12-29T15:14:04;3.47;;;2.35;;
62071;SDS011;48031;48.542;13.232;2023-12-29T15:18:06;4.32;;;2.00;;
62071;SDS011;48031;48.542;13.232;2023-12-29T15:22:08;3.30;;;2.10;;
62071;SDS011;48031;48.542;13.232;2023-12-29T15:26:12;2.28;;;1.80;;
62071;SDS011;48031;48.542;13.232;2023-12-29T15:30:16;2.10;;;1.90;;
62071;SDS011;48031;48.542;13.232;2023-12-29T15:34:18;2.92;;;2.20;;
62071;SDS011;48031;48.542;13.232;2023-12-29T15:38:20;2.92;;;2.15;;
62071;SDS011;48031;48.542;13.232;2023-12-29T15:42:22;2.00;;;1.77;;
62071;SDS011;48031;48.542;13.232;2023-12-29T15:46:24;1.92;;;1.70;;
62071;SDS011;48031;48.542;13.232;2023-12-29T15:50:26;2.72;;;2.00;;
62071;SDS011;48031;48.542;13.232;2023-12-29T15:54:28;2.03;;;1.70;;
62071;SDS011;48031;48.542;13.232;2023-12-29T15:58:30;3.53;;;2.00;;
62071;SDS011;48031;48.542;13.232;2023-12-29T16:02:32;4.47;;;2.22;;
62071;SDS011;48031;48.542;13.232;2023-12-29T16:06:33;3.60;;;2.35;;
62071;SDS011;48031;48.542;13.232;2023-12-29T16:10:38;2.80;;;2.30;;
62071;SDS011;48031;48.542;13.232;2023-12-29T16:14:40;3.92;;;2.60;;
62071;SDS011;48031;48.542;13.232;2023-12-29T16:18:43;2.47;;;2.05;;
62071;SDS011;48031;48.542;13.232;2023-12-29T16:22:46;2.88;;;1.77;;
62071;SDS011;48031;48.542;13.232;2023-12-29T16:26:49;2.67;;;1.80;;
62071;SDS011;48031;48.542;13.232;2023-12-29T16:30:53;1.95;;;1.75;;
62071;SDS011;48031;48.542;13.232;2023-12-29T16:34:55;2.97;;;2.22;;
62071;SDS011;48031;48.542;13.232;2023-12-29T16:38:57;2.30;;;2.08;;
62071;SDS011;48031;48.542;13.232;2023-12-29T16:42:58;2.35;;;2.00;;
62071;SDS011;48031;48.542;13.232;2023-12-29T16:47:01;2.10;;;1.90;;
62071;SDS011;48031;48.542;13.232;2023-12-29T16:51:03;1.60;;;1.50;;
62071;SDS011;48031;48.542;13.232;2023-12-29T16:55:08;3.92;;;2.20;;
62071;SDS011;48031;48.542;13.232;2023-12-29T16:59:10;4.63;;;2.35;;
62071;SDS011;48031;48.542;13.232;2023-12-29T17:03:12;2.28;;;2.03;;
62071;SDS011;48031;48.542;13.232;2023-12-29T17:07:14;4.97;;;2.70;;
62071;SDS011;48031;48.542;13.232;2023-12-29T17:11:16;3.75;;;2.00;;
62071;SDS011;48031;48.542;13.232;2023-12-29T17:15:18;3.28;;;2.10;;
62071;SDS011;48031;48.542;13.232;2023-12-29T17:19:20;5.10;;;2.47;;
62071;SDS011;48031;48.542;13.232;2023-12-29T17:23:24;4.05;;;2.08;;
62071;SDS011;48031;48.542;13.232;2023-12-29T17:27:25;2.05;;;1.85;;
62071;SDS011;48031;48.542;13.232;2023-12-29T17:31:27;3.42;;;2.20;;
62071;SDS011;48031;48.542;13.232;2023-12-29T17:35:29;2.83;;;2.10;;
62071;SDS011;48031;48.542;13.232;2023-12-29T17:39:31;2.15;;;1.63;;
62071;SDS011;48031;48.542;13.232;2023-12-29T17:43:32;3.05;;;2.10;;
62071;SDS011;48031;48.542;13.232;2023-12-29T17:47:34;2.10;;;1.85;;
62071;SDS011;48031;48.542;13.232;2023-12-29T17:51:36;3.08;;;1.90;;
62071;SDS011;48031;48.542;13.232;2023-12-29T17:55:38;2.90;;;1.92;;
62071;SDS011;48031;48.542;13.232;2023-12-29T17:59:40;5.30;;;1.83;;
62071;SDS011;48031;48.542;13.232;2023-12-29T18:03:42;2.22;;;1.92;;
62071;SDS011;48031;48.542;13.232;2023-12-29T18:07:44;2.65;;;1.88;;
62071;SDS011;48031;48.542;13.232;2023-12-29T18:11:47;3.83;;;1.90;;
62071;SDS011;48031;48.542;13.232;2023-12-29T18:15:52;2.67;;;1.88;;
62071;SDS011;48031;48.542;13.232;2023-12-29T18:19:54;2.35;;;1.80;;
62071;SDS011;48031;48.542;13.232;2023-12-29T18:23:56;4.35;;;2.00;;
62071;SDS011;48031;48.542;13.232;2023-12-29T18:27:57;2.13;;;1.70;;
62071;SDS011;48031;48.542;13.232;2023-12-29T18:31:59;2.40;;;1.80;;
62071;SDS011;48031;48.542;13.232;2023-12-29T18:36:21;1.90;;;1.38;;
62071;SDS011;48031;48.542;13.232;2023-12-29T18:40:23;2.42;;;1.60;;
62071;SDS011;48031;48.542;13.232;2023-12-29T18:44:26;1.83;;;1.50;;
62071;SDS011;48031;48.542;13.232;2023-12-29T18:48:27;2.83;;;1.80;;
62071;SDS011;48031;48.542;13.232;2023-12-29T18:52:30;1.83;;;1.50;;
62071;SDS011;48031;48.542;13.232;2023-12-29T18:56:32;1.63;;;1.25;;
62071;SDS011;48031;48.542;13.232;2023-12-29T19:00:34;1.63;;;1.48;;
62071;SDS011;48031;48.542;13.232;2023-12-29T19:04:35;2.05;;;1.50;;
62071;SDS011;48031;48.542;13.232;2023-12-29T19:08:37;3.10;;;1.70;;
62071;SDS011;48031;48.542;13.232;2023-12-29T19:12:39;2.08;;;1.58;;
62071;SDS011;48031;48.542;13.232;2023-12-29T19:16:41;2.60;;;1.30;;
62071;SDS011;48031;48.542;13.232;2023-12-29T19:20:43;1.40;;;1.30;;
62071;SDS011;48031;48.542;13.232;2023-12-29T19:24:45;1.10;;;1.00;;
62071;SDS011;48031;48.542;13.232;2023-12-29T19:28:50;2.13;;;1.20;;
62071;SDS011;48031;48.542;13.232;2023-12-29T19:32:51;1.98;;;1.52;;
62071;SDS011;48031;48.542;13.232;2023-12-29T19:36:54;2.35;;;1.77;;
62071;SDS011;48031;48.542;13.232;2023-12-29T19:40:56;1.70;;;1.23;;
62071;SDS011;48031;48.542;13.232;2023-12-29T19:44:58;1.42;;;1.10;;
62071;SDS011;48031;48.542;13.232;2023-12-29T19:49:14;2.65;;;1.52;;
62071;SDS011;48031;48.542;13.232;2023-12-29T19:53:17;3.15;;;1.40;;
62071;SDS011;48031;48.542;13.232;2023-12-29T19:57:19;1.27;;;1.17;;
62071;SDS011;48031;48.542;13.232;2023-12-29T20:01:21;2.33;;;1.48;;
62071;SDS011;48031;48.542;13.232;2023-12-29T20:05:23;2.15;;;1.15;;
62071;SDS011;48031;48.542;13.232;2023-12-29T20:09:26;1.83;;;1.40;;
62071;SDS011;48031;48.542;13.232;2023-12-29T20:13:28;1.88;;;1.23;;
62071;SDS011;48031;48.542;13.232;2023-12-29T20:17:30;1.40;;;1.30;;
62071;SDS011;48031;48.542;13.232;2023-12-29T20:21:32;2.08;;;1.40;;
62071;SDS011;48031;48.542;13.232;2023-12-29T20:25:34;1.50;;;1.40;;
62071;SDS011;48031;48.542;13.232;2023-12-29T20:29:36;1.42;;;1.27;;
62071;SDS011;48031;48.542;13.232;2023-12-29T20:33:44;1.42;;;1.10;;
62071;SDS011;48031;48.542;13.232;2023-12-29T20:37:46;1.00;;;1.00;;
62071;SDS011;48031;48.542;13.232;2023-12-29T20:41:48;1.65;;;1.20;;
62071;SDS011;48031;48.542;13.232;2023-12-29T20:45:50;0.95;;;0.90;;
62071;SDS011;48031;48.542;13.232;2023-12-29T20:49:52;1.10;;;1.00;;
62071;SDS011;48031;48.542;13.232;2023-12-29T20:53:55;1.10;;;1.00;;
62071;SDS011;48031;48.542;13.232;2023-12-29T20:57:57;0.90;;;0.90;;
62071;SDS011;48031;48.542;13.232;2023-12-29T21:01:59;1.30;;;0.85;;
62071;SDS011;48031;48.542;13.232;2023-12-29T21:06:06;0.88;;;0.88;;
62071;SDS011;48031;48.542;13.232;2023-12-29T21:10:09;0.80;;;0.80;;
62071;SDS011;48031;48.542;13.232;2023-12-29T21:14:11;0.90;;;0.90;;
62071;SDS011;48031;48.542;13.232;2023-12-29T21:18:12;0.73;;;0.73;;
62071;SDS011;48031;48.542;13.232;2023-12-29T21:22:15;2.22;;;0.85;;
62071;SDS011;48031;48.542;13.232;2023-12-29T21:26:20;0.77;;;0.77;;
62071;SDS011;48031;48.542;13.232;2023-12-29T21:30:22;0.88;;;0.80;;
62071;SDS011;48031;48.542;13.232;2023-12-29T21:34:24;1.58;;;1.30;;
62071;SDS011;48031;48.542;13.232;2023-12-29T21:38:26;1.58;;;1.27;;
62071;SDS011;48031;48.542;13.232;2023-12-29T21:42:28;1.65;;;1.30;;
62071;SDS011;48031;48.542;13.232;2023-12-29T21:46:30;1.92;;;1.23;;
62071;SDS011;48031;48.542;13.232;2023-12-29T21:50:32;1.60;;;1.23;;
62071;SDS011;48031;48.542;13.232;2023-12-29T21:54:34;1.23;;;1.10;;
62071;SDS011;48031;48.542;13.232;2023-12-29T21:58:36;3.00;;;1.60;;
62071;SDS011;48031;48.542;13.232;2023-12-29T22:02:38;1.65;;;1.35;;
62071;SDS011;48031;48.542;13.232;2023-12-29T22:06:40;2.25;;;1.30;;
62071;SDS011;48031;48.542;13.232;2023-12-29T22:10:42;1.27;;;1.17;;
62071;SDS011;48031;48.542;13.232;2023-12-29T22:14:44;2.75;;;1.80;;
62071;SDS011;48031;48.542;13.232;2023-12-29T22:18:46;1.45;;;1.20;;
62071;SDS011;48031;48.542;13.232;2023-12-29T22:22:48;2.28;;;1.40;;
62071;SDS011;48031;48.542;13.232;2023-12-29T22:26:51;1.90;;;1.40;;
62071;SDS011;48031;48.542;13.232;2023-12-29T22:30:53;3.03;;;1.60;;
62071;SDS011;48031;48.542;13.232;2023-12-29T22:34:55;2.20;;;1.75;;
62071;SDS011;48031;48.542;13.232;2023-12-29T22:38:57;3.83;;;2.08;;
62071;SDS011;48031;48.542;13.232;2023-12-29T22:42:59;4.05;;;2.17;;
62071;SDS011;48031;48.542;13.232;2023-12-29T22:47:02;3.55;;;2.20;;
62071;SDS011;48031;48.542;13.232;2023-12-29T22:51:04;3.63;;;2.50;;
62071;SDS011;48031;48.542;13.232;2023-12-29T22:55:06;2.55;;;2.10;;
62071;SDS011;48031;48.542;13.232;2023-12-29T22:59:09;3.25;;;2.08;;
62071;SDS011;48031;48.542;13.232;2023-12-29T23:03:10;3.60;;;2.22;;
62071;SDS011;48031;48.542;13.232;2023-12-29T23:07:13;7.35;;;2.47;;
62071;SDS011;48031;48.542;13.232;2023-12-29T23:11:14;4.65;;;2.60;;
62071;SDS011;48031;48.542;13.232;2023-12-29T23:15:16;3.08;;;2.08;;
62071;SDS011;48031;48.542;13.232;2023-12-29T23:19:18;2.20;;;1.70;;
62071;SDS011;48031;48.542;13.232;2023-12-29T23:23:20;2.20;;;1.70;;
62071;SDS011;48031;48.542;13.232;2023-12-29T23:27:22;3.42;;;2.00;;
62071;SDS011;48031;48.542;13.232;2023-12-29T23:31:25;3.08;;;1.80;;
62071;SDS011;48031;48.542;13.232;2023-12-29T23:35:27;3.15;;;2.20;;
62071;SDS011;48031;48.542;13.232;2023-12-29T23:39:29;2.40;;;1.85;;
62071;SDS011;48031;48.542;13.232;2023-12-29T23:43:31;4.35;;;2.20;;
62071;SDS011;48031;48.542;13.232;2023-12-29T23:47:33;2.85;;;1.80;;
62071;SDS011;48031;48.542;13.232;2023-12-29T23:51:35;2.80;;;1.88;;
62071;SDS011;48031;48.542;13.232;2023-12-29T23:55:39;2.42;;;1.83;;
62071;SDS011;48031;48.542;13.232;2023-12-29T23:59:41;1.90;;;1.77;;
